El Campo, Texas
Current Conditions -  °F | °C
As of 6:15 PM on Wednesday 28 Jan 2015 (Local Time) from KARM Reporting Station
Clear Clear  
Wind Chill: 62°   Ceiling: Unl
Heat Index: 62°   Visibility: 10mi
Dew Point: 56°   Wind: 8mph
Humidity: 80%   Direction: 160°SSE
Pressure: 30.14"   Gusts: NA
Location:  29.22°N, 96.29°W
Report Text: KARM 290015Z AUTO 16007KT 10SM CLR 17/13 A3014 RMK AO2 T01670132
Loading
Personal Weather Stations






























Interactive Weather Map New forecast layout! Learn more

10-Day Weather Forecast

Advertisements
Track Severe Weather on mobile